sensor_id;sensor_type;location;lat;lon;timestamp;pressure;altitude;pressure_sealevel;temperature;humidity
74798;BME280;63326;45.088;7.658;2023-12-04T00:00:03;99456.22;;;-3.10;100.00
74798;BME280;63326;45.088;7.658;2023-12-04T00:02:37;99428.75;;;-3.20;100.00
74798;BME280;63326;45.088;7.658;2023-12-04T00:05:05;99409.84;;;-3.26;100.00
74798;BME280;63326;45.088;7.658;2023-12-04T00:07:32;99443.69;;;-3.05;100.00
74798;BME280;63326;45.088;7.658;2023-12-04T00:09:59;99406.25;;;-3.24;100.00
74798;BME280;63326;45.088;7.658;2023-12-04T00:12:25;99417.16;;;-3.16;100.00
74798;BME280;63326;45.088;7.658;2023-12-04T00:14:52;99423.34;;;-3.17;100.00
74798;BME280;63326;45.088;7.658;2023-12-04T00:17:19;99454.63;;;-2.96;100.00
74798;BME280;63326;45.088;7.658;2023-12-04T00:19:46;99437.59;;;-2.89;100.00
74798;BME280;63326;45.088;7.658;2023-12-04T00:22:12;99443.53;;;-2.86;100.00
74798;BME280;63326;45.088;7.658;2023-12-04T00:24:39;99427.00;;;-3.04;100.00
74798;BME280;63326;45.088;7.658;2023-12-04T00:27:06;99426.94;;;-3.02;100.00
74798;BME280;63326;45.088;7.658;2023-12-04T00:29:32;99462.88;;;-2.71;100.00
74798;BME280;63326;45.088;7.658;2023-12-04T00:31:59;99420.72;;;-3.01;100.00
74798;BME280;63326;45.088;7.658;2023-12-04T00:34:26;99433.78;;;-2.99;100.00
74798;BME280;63326;45.088;7.658;2023-12-04T00:36:53;99431.75;;;-3.10;100.00
74798;BME280;63326;45.088;7.658;2023-12-04T00:39:19;99434.47;;;-3.12;100.00
74798;BME280;63326;45.088;7.658;2023-12-04T00:41:46;99389.25;;;-3.50;100.00
74798;BME280;63326;45.088;7.658;2023-12-04T00:44:13;99428.16;;;-3.25;100.00
74798;BME280;63326;45.088;7.658;2023-12-04T00:46:39;99436.72;;;-3.21;100.00
74798;BME280;63326;45.088;7.658;2023-12-04T00:49:06;99443.00;;;-3.24;100.00
74798;BME280;63326;45.088;7.658;2023-12-04T00:51:39;99421.03;;;-3.39;100.00
74798;BME280;63326;45.088;7.658;2023-12-04T00:54:06;99419.50;;;-3.27;100.00
74798;BME280;63326;45.088;7.658;2023-12-04T00:56:32;99403.00;;;-3.29;100.00
74798;BME280;63326;45.088;7.658;2023-12-04T00:58:59;99403.16;;;-3.32;100.00
74798;BME280;63326;45.088;7.658;2023-12-04T01:01:26;99400.69;;;-3.35;100.00
74798;BME280;63326;45.088;7.658;2023-12-04T01:03:53;99402.47;;;-3.36;100.00
74798;BME280;63326;45.088;7.658;2023-12-04T01:06:21;99405.53;;;-3.43;100.00
74798;BME280;63326;45.088;7.658;2023-12-04T01:08:53;99419.41;;;-3.41;100.00
74798;BME280;63326;45.088;7.658;2023-12-04T01:11:19;99422.41;;;-3.32;100.00
74798;BME280;63326;45.088;7.658;2023-12-04T01:13:46;99429.19;;;-3.27;100.00
74798;BME280;63326;45.088;7.658;2023-12-04T01:16:13;99378.16;;;-3.55;100.00
74798;BME280;63326;45.088;7.658;2023-12-04T01:18:40;99442.16;;;-3.09;100.00
74798;BME280;63326;45.088;7.658;2023-12-04T01:21:08;99403.00;;;-3.29;100.00
74798;BME280;63326;45.088;7.658;2023-12-04T01:23:37;99451.31;;;-2.84;100.00
74798;BME280;63326;45.088;7.658;2023-12-04T01:26:04;99400.81;;;-3.21;100.00
74798;BME280;63326;45.088;7.658;2023-12-04T01:28:31;99390.03;;;-3.32;100.00
74798;BME280;63326;45.088;7.658;2023-12-04T01:30:58;99387.25;;;-3.29;100.00
74798;BME280;63326;45.088;7.658;2023-12-04T01:33:24;99427.16;;;-3.07;100.00
74798;BME280;63326;45.088;7.658;2023-12-04T01:35:51;99434.72;;;-3.00;100.00
74798;BME280;63326;45.088;7.658;2023-12-04T01:38:18;99370.56;;;-3.44;100.00
74798;BME280;63326;45.088;7.658;2023-12-04T01:40:45;99427.34;;;-3.10;100.00
74798;BME280;63326;45.088;7.658;2023-12-04T01:43:13;99437.66;;;-3.07;100.00
74798;BME280;63326;45.088;7.658;2023-12-04T01:45:41;99388.66;;;-3.39;100.00
74798;BME280;63326;45.088;7.658;2023-12-04T01:48:08;99426.91;;;-3.18;100.00
74798;BME280;63326;45.088;7.658;2023-12-04T01:50:36;99346.31;;;-3.49;100.00
74798;BME280;63326;45.088;7.658;2023-12-04T01:53:03;99456.66;;;-2.86;100.00
74798;BME280;63326;45.088;7.658;2023-12-04T01:55:30;99454.81;;;-2.84;100.00
74798;BME280;63326;45.088;7.658;2023-12-04T01:57:59;99460.94;;;-2.83;100.00
74798;BME280;63326;45.088;7.658;2023-12-04T02:00:27;99414.38;;;-2.97;100.00
74798;BME280;63326;45.088;7.658;2023-12-04T02:02:53;99439.91;;;-2.83;100.00
74798;BME280;63326;45.088;7.658;2023-12-04T02:05:21;99434.56;;;-2.82;100.00
74798;BME280;63326;45.088;7.658;2023-12-04T02:07:49;99417.59;;;-2.92;100.00
74798;BME280;63326;45.088;7.658;2023-12-04T02:10:15;99406.75;;;-3.01;100.00
74798;BME280;63326;45.088;7.658;2023-12-04T02:12:42;99385.38;;;-3.11;100.00
74798;BME280;63326;45.088;7.658;2023-12-04T02:15:09;99445.66;;;-2.77;100.00
74798;BME280;63326;45.088;7.658;2023-12-04T02:17:36;99403.38;;;-3.04;100.00
74798;BME280;63326;45.088;7.658;2023-12-04T02:20:04;99465.97;;;-2.64;100.00
74798;BME280;63326;45.088;7.658;2023-12-04T02:22:31;99414.59;;;-2.86;100.00
74798;BME280;63326;45.088;7.658;2023-12-04T02:24:58;99414.78;;;-2.89;100.00
74798;BME280;63326;45.088;7.658;2023-12-04T02:27:28;99459.13;;;-2.67;100.00
74798;BME280;63326;45.088;7.658;2023-12-04T02:30:02;99443.09;;;-2.78;100.00
74798;BME280;63326;45.088;7.658;2023-12-04T02:32:33;99403.00;;;-2.97;100.00
74798;BME280;63326;45.088;7.658;2023-12-04T02:35:04;99395.97;;;-2.97;100.00
74798;BME280;63326;45.088;7.658;2023-12-04T02:37:31;99448.59;;;-2.67;100.00
74798;BME280;63326;45.088;7.658;2023-12-04T02:39:59;99381.97;;;-2.97;100.00
74798;BME280;63326;45.088;7.658;2023-12-04T02:42:26;99422.75;;;-2.75;100.00
74798;BME280;63326;45.088;7.658;2023-12-04T02:44:53;99375.97;;;-2.99;100.00
74798;BME280;63326;45.088;7.658;2023-12-04T02:47:20;99414.00;;;-2.75;100.00
74798;BME280;63326;45.088;7.658;2023-12-04T02:49:46;99411.38;;;-2.75;100.00
74798;BME280;63326;45.088;7.658;2023-12-04T02:52:13;99421.38;;;-2.66;100.00
74798;BME280;63326;45.088;7.658;2023-12-04T02:54:40;99343.91;;;-2.90;100.00
74798;BME280;63326;45.088;7.658;2023-12-04T02:57:06;99406.06;;;-2.43;100.00
74798;BME280;63326;45.088;7.658;2023-12-04T02:59:33;99377.75;;;-2.54;100.00
74798;BME280;63326;45.088;7.658;2023-12-04T03:02:00;99358.69;;;-2.58;100.00
74798;BME280;63326;45.088;7.658;2023-12-04T03:04:28;99391.09;;;-2.27;100.00
74798;BME280;63326;45.088;7.658;2023-12-04T03:06:56;99406.84;;;-2.11;100.00
74798;BME280;63326;45.088;7.658;2023-12-04T03:09:23;99353.31;;;-2.40;100.00
74798;BME280;63326;45.088;7.658;2023-12-04T03:12:10;99372.78;;;-2.14;100.00
74798;BME280;63326;45.088;7.658;2023-12-04T03:14:36;99395.09;;;-2.06;100.00
74798;BME280;63326;45.088;7.658;2023-12-04T03:17:03;99314.06;;;-2.29;100.00
74798;BME280;63326;45.088;7.658;2023-12-04T03:19:29;99385.34;;;-1.75;100.00
74798;BME280;63326;45.088;7.658;2023-12-04T03:21:57;99313.31;;;-2.17;100.00
74798;BME280;63326;45.088;7.658;2023-12-04T03:24:23;99396.72;;;-1.75;100.00
74798;BME280;63326;45.088;7.658;2023-12-04T03:26:50;99380.34;;;-1.94;100.00
74798;BME280;63326;45.088;7.658;2023-12-04T03:29:17;99314.41;;;-2.35;100.00
74798;BME280;63326;45.088;7.658;2023-12-04T03:31:43;99338.13;;;-2.21;100.00
74798;BME280;63326;45.088;7.658;2023-12-04T03:34:10;99390.13;;;-1.96;100.00
74798;BME280;63326;45.088;7.658;2023-12-04T03:36:37;99383.38;;;-2.00;100.00
74798;BME280;63326;45.088;7.658;2023-12-04T03:39:04;99342.25;;;-2.31;100.00
74798;BME280;63326;45.088;7.658;2023-12-04T03:41:30;99357.09;;;-2.30;100.00
74798;BME280;63326;45.088;7.658;2023-12-04T03:43:57;99344.66;;;-2.42;100.00
74798;BME280;63326;45.088;7.658;2023-12-04T03:46:23;99383.81;;;-2.22;100.00
74798;BME280;63326;45.088;7.658;2023-12-04T03:48:50;99350.28;;;-2.34;100.00
74798;BME280;63326;45.088;7.658;2023-12-04T03:51:17;99386.25;;;-2.19;100.00
74798;BME280;63326;45.088;7.658;2023-12-04T03:53:44;99373.19;;;-2.21;100.00
74798;BME280;63326;45.088;7.658;2023-12-04T03:56:10;99391.13;;;-2.13;100.00
74798;BME280;63326;45.088;7.658;2023-12-04T03:58:38;99353.13;;;-2.37;100.00
74798;BME280;63326;45.088;7.658;2023-12-04T04:01:05;99376.28;;;-2.14;100.00
74798;BME280;63326;45.088;7.658;2023-12-04T04:03:32;99382.31;;;-2.12;100.00
74798;BME280;63326;45.088;7.658;2023-12-04T04:05:58;99372.69;;;-2.13;100.00
74798;BME280;63326;45.088;7.658;2023-12-04T04:08:25;99385.91;;;-1.99;100.00
74798;BME280;63326;45.088;7.658;2023-12-04T04:10:53;99409.44;;;-1.81;100.00
74798;BME280;63326;45.088;7.658;2023-12-04T04:13:20;99392.88;;;-1.83;100.00
74798;BME280;63326;45.088;7.658;2023-12-04T04:15:46;99378.31;;;-1.89;100.00
74798;BME280;63326;45.088;7.658;2023-12-04T04:18:13;99355.81;;;-1.95;100.00
74798;BME280;63326;45.088;7.658;2023-12-04T04:20:40;99361.28;;;-1.83;100.00
74798;BME280;63326;45.088;7.658;2023-12-04T04:23:06;99350.19;;;-1.89;100.00
74798;BME280;63326;45.088;7.658;2023-12-04T04:25:33;99335.59;;;-1.94;100.00
74798;BME280;63326;45.088;7.658;2023-12-04T04:27:59;99346.63;;;-1.88;100.00
74798;BME280;63326;45.088;7.658;2023-12-04T04:30:26;99321.03;;;-2.00;100.00
74798;BME280;63326;45.088;7.658;2023-12-04T04:32:53;99346.41;;;-1.84;100.00
74798;BME280;63326;45.088;7.658;2023-12-04T04:35:19;99367.09;;;-1.64;100.00
74798;BME280;63326;45.088;7.658;2023-12-04T04:37:46;99343.22;;;-1.75;100.00
74798;BME280;63326;45.088;7.658;2023-12-04T04:40:15;99382.16;;;-1.52;100.00
74798;BME280;63326;45.088;7.658;2023-12-04T04:42:43;99353.19;;;-1.66;100.00
74798;BME280;63326;45.088;7.658;2023-12-04T04:45:09;99371.91;;;-1.56;100.00
74798;BME280;63326;45.088;7.658;2023-12-04T04:47:36;99339.09;;;-1.65;100.00
74798;BME280;63326;45.088;7.658;2023-12-04T04:50:03;99326.13;;;-1.68;100.00
74798;BME280;63326;45.088;7.658;2023-12-04T04:52:30;99364.00;;;-1.42;100.00
74798;BME280;63326;45.088;7.658;2023-12-04T04:54:58;99351.84;;;-1.45;100.00
74798;BME280;63326;45.088;7.658;2023-12-04T04:57:25;99322.91;;;-1.59;100.00
74798;BME280;63326;45.088;7.658;2023-12-04T04:59:51;99323.03;;;-1.61;100.00
74798;BME280;63326;45.088;7.658;2023-12-04T05:02:18;99318.59;;;-1.60;100.00
74798;BME280;63326;45.088;7.658;2023-12-04T05:04:44;99352.22;;;-1.37;100.00
74798;BME280;63326;45.088;7.658;2023-12-04T05:07:11;99335.31;;;-1.47;100.00
74798;BME280;63326;45.088;7.658;2023-12-04T05:09:38;99323.84;;;-1.46;100.00
74798;BME280;63326;45.088;7.658;2023-12-04T05:12:05;99329.75;;;-1.42;100.00
74798;BME280;63326;45.088;7.658;2023-12-04T05:14:32;99324.69;;;-1.45;100.00
74798;BME280;63326;45.088;7.658;2023-12-04T05:16:58;99333.06;;;-1.39;100.00
74798;BME280;63326;45.088;7.658;2023-12-04T05:19:25;99320.16;;;-1.43;100.00
74798;BME280;63326;45.088;7.658;2023-12-04T05:21:52;99339.59;;;-1.32;100.00
74798;BME280;63326;45.088;7.658;2023-12-04T05:24:19;99325.78;;;-1.35;100.00
74798;BME280;63326;45.088;7.658;2023-12-04T05:26:45;99346.09;;;-1.23;100.00
74798;BME280;63326;45.088;7.658;2023-12-04T05:29:12;99323.53;;;-1.41;100.00
74798;BME280;63326;45.088;7.658;2023-12-04T05:31:39;99329.47;;;-1.38;100.00
74798;BME280;63326;45.088;7.658;2023-12-04T05:34:05;99338.00;;;-1.34;100.00
74798;BME280;63326;45.088;7.658;2023-12-04T05:36:32;99336.44;;;-1.37;100.00
74798;BME280;63326;45.088;7.658;2023-12-04T05:38:59;99354.19;;;-1.26;100.00
74798;BME280;63326;45.088;7.658;2023-12-04T05:41:27;99371.00;;;-1.14;100.00
74798;BME280;63326;45.088;7.658;2023-12-04T05:43:54;99313.66;;;-1.52;100.00
74798;BME280;63326;45.088;7.658;2023-12-04T05:46:20;99369.41;;;-1.17;100.00
74798;BME280;63326;45.088;7.658;2023-12-04T05:48:47;99364.63;;;-1.10;100.00
74798;BME280;63326;45.088;7.658;2023-12-04T05:51:14;99338.66;;;-1.16;100.00
74798;BME280;63326;45.088;7.658;2023-12-04T05:53:41;99363.47;;;-1.06;100.00
74798;BME280;63326;45.088;7.658;2023-12-04T05:56:08;99363.16;;;-1.02;100.00
74798;BME280;63326;45.088;7.658;2023-12-04T05:58:35;99305.72;;;-1.23;100.00
74798;BME280;63326;45.088;7.658;2023-12-04T06:01:02;99356.59;;;-0.82;99.88
74798;BME280;63326;45.088;7.658;2023-12-04T06:03:29;99319.25;;;-1.15;100.00
74798;BME280;63326;45.088;7.658;2023-12-04T06:05:55;99316.81;;;-1.18;100.00
74798;BME280;63326;45.088;7.658;2023-12-04T06:08:25;99355.66;;;-0.81;100.00
74798;BME280;63326;45.088;7.658;2023-12-04T06:10:52;99358.84;;;-0.76;99.82
74798;BME280;63326;45.088;7.658;2023-12-04T06:13:19;99361.59;;;-0.77;99.75
74798;BME280;63326;45.088;7.658;2023-12-04T06:15:45;99371.44;;;-0.66;100.00
74798;BME280;63326;45.088;7.658;2023-12-04T06:18:12;99368.91;;;-0.68;100.00
74798;BME280;63326;45.088;7.658;2023-12-04T06:20:39;99367.97;;;-0.67;100.00
74798;BME280;63326;45.088;7.658;2023-12-04T06:23:06;99372.69;;;-0.72;100.00
74798;BME280;63326;45.088;7.658;2023-12-04T06:25:33;99334.53;;;-0.93;100.00
74798;BME280;63326;45.088;7.658;2023-12-04T06:28:00;99362.53;;;-0.78;100.00
74798;BME280;63326;45.088;7.658;2023-12-04T06:30:27;99309.91;;;-1.07;100.00
74798;BME280;63326;45.088;7.658;2023-12-04T06:32:54;99355.38;;;-0.76;100.00
74798;BME280;63326;45.088;7.658;2023-12-04T06:35:21;99338.88;;;-0.80;99.90
74798;BME280;63326;45.088;7.658;2023-12-04T06:37:53;99366.81;;;-0.63;100.00
74798;BME280;63326;45.088;7.658;2023-12-04T06:40:21;99348.09;;;-0.73;100.00
74798;BME280;63326;45.088;7.658;2023-12-04T06:42:48;99359.84;;;-0.64;100.00
74798;BME280;63326;45.088;7.658;2023-12-04T06:45:15;99345.47;;;-0.73;99.54
74798;BME280;63326;45.088;7.658;2023-12-04T06:47:43;99364.72;;;-0.58;98.17
74798;BME280;63326;45.088;7.658;2023-12-04T06:50:10;99362.63;;;-0.53;98.05
74798;BME280;63326;45.088;7.658;2023-12-04T06:52:36;99340.75;;;-0.67;97.45
74798;BME280;63326;45.088;7.658;2023-12-04T06:55:03;99344.34;;;-0.56;95.12
74798;BME280;63326;45.088;7.658;2023-12-04T06:57:30;99363.81;;;-0.31;91.20
74798;BME280;63326;45.088;7.658;2023-12-04T06:59:57;99336.97;;;-0.51;91.42
74798;BME280;63326;45.088;7.658;2023-12-04T07:02:23;99325.03;;;-0.56;92.86
74798;BME280;63326;45.088;7.658;2023-12-04T07:04:50;99253.13;;;-0.98;94.88
74798;BME280;63326;45.088;7.658;2023-12-04T07:07:16;99358.88;;;-0.36;95.69
74798;BME280;63326;45.088;7.658;2023-12-04T07:09:43;99281.78;;;-0.66;95.57
74798;BME280;63326;45.088;7.658;2023-12-04T07:12:10;99325.41;;;-0.35;94.86
74798;BME280;63326;45.088;7.658;2023-12-04T07:14:37;99304.69;;;-0.42;95.55
74798;BME280;63326;45.088;7.658;2023-12-04T07:17:03;99300.59;;;-0.33;94.74
74798;BME280;63326;45.088;7.658;2023-12-04T07:19:30;99309.69;;;-0.24;94.94
74798;BME280;63326;45.088;7.658;2023-12-04T07:21:57;99310.63;;;-0.13;95.11
74798;BME280;63326;45.088;7.658;2023-12-04T07:24:24;99293.31;;;-0.04;93.28
74798;BME280;63326;45.088;7.658;2023-12-04T07:26:52;99326.78;;;0.21;91.54
74798;BME280;63326;45.088;7.658;2023-12-04T07:29:19;99299.78;;;0.05;92.05
74798;BME280;63326;45.088;7.658;2023-12-04T07:31:46;99283.81;;;0.06;91.35
74798;BME280;63326;45.088;7.658;2023-12-04T07:34:12;99306.81;;;0.30;90.70
74798;BME280;63326;45.088;7.658;2023-12-04T07:36:39;99296.91;;;0.33;91.35
74798;BME280;63326;45.088;7.658;2023-12-04T07:39:06;99312.63;;;0.71;86.99
74798;BME280;63326;45.088;7.658;2023-12-04T07:41:33;99276.09;;;0.53;85.98
74798;BME280;63326;45.088;7.658;2023-12-04T07:43:59;99331.00;;;0.86;86.96
74798;BME280;63326;45.088;7.658;2023-12-04T07:46:26;99309.84;;;0.86;86.83
74798;BME280;63326;45.088;7.658;2023-12-04T07:48:53;99279.97;;;0.72;84.89
74798;BME280;63326;45.088;7.658;2023-12-04T07:51:22;99328.91;;;1.15;83.80
74798;BME280;63326;45.088;7.658;2023-12-04T07:53:49;99313.13;;;1.13;83.19
74798;BME280;63326;45.088;7.658;2023-12-04T07:56:15;99279.75;;;0.99;83.13
74798;BME280;63326;45.088;7.658;2023-12-04T07:58:42;99311.31;;;1.38;81.94
74798;BME280;63326;45.088;7.658;2023-12-04T08:01:09;99293.19;;;1.20;81.84
74798;BME280;63326;45.088;7.658;2023-12-04T08:03:36;99241.06;;;0.98;81.02
74798;BME280;63326;45.088;7.658;2023-12-04T08:06:03;99239.19;;;0.88;81.32
74798;BME280;63326;45.088;7.658;2023-12-04T08:08:30;99253.44;;;0.98;81.40
74798;BME280;63326;45.088;7.658;2023-12-04T08:10:58;99279.06;;;1.09;83.08
74798;BME280;63326;45.088;7.658;2023-12-04T08:13:25;99263.59;;;0.91;83.12
74798;BME280;63326;45.088;7.658;2023-12-04T08:15:51;99257.16;;;0.95;82.53
74798;BME280;63326;45.088;7.658;2023-12-04T08:18:18;99257.22;;;0.94;82.04
74798;BME280;63326;45.088;7.658;2023-12-04T08:20:45;99321.25;;;1.34;82.11
74798;BME280;63326;45.088;7.658;2023-12-04T08:23:12;99262.94;;;1.00;81.56
74798;BME280;63326;45.088;7.658;2023-12-04T08:25:38;99319.47;;;1.35;81.22
74798;BME280;63326;45.088;7.658;2023-12-04T08:28:05;99289.72;;;1.20;81.44
74798;BME280;63326;45.088;7.658;2023-12-04T08:30:32;99323.31;;;1.30;79.56
74798;BME280;63326;45.088;7.658;2023-12-04T08:32:59;99271.25;;;0.83;80.29
74798;BME280;63326;45.088;7.658;2023-12-04T08:35:26;99318.56;;;1.47;81.20
74798;BME280;63326;45.088;7.658;2023-12-04T08:37:53;99302.66;;;1.82;77.56
74798;BME280;63326;45.088;7.658;2023-12-04T08:40:20;99308.59;;;1.97;77.33
74798;BME280;63326;45.088;7.658;2023-12-04T08:42:46;99283.69;;;2.22;75.69
74798;BME280;63326;45.088;7.658;2023-12-04T08:45:13;99292.00;;;2.39;74.32
74798;BME280;63326;45.088;7.658;2023-12-04T08:47:42;99295.69;;;2.37;75.14
74798;BME280;63326;45.088;7.658;2023-12-04T08:50:08;99287.00;;;2.57;72.94
74798;BME280;63326;45.088;7.658;2023-12-04T08:52:35;99279.91;;;1.79;76.17
74798;BME280;63326;45.088;7.658;2023-12-04T08:55:03;99323.38;;;1.88;76.40
74798;BME280;63326;45.088;7.658;2023-12-04T08:57:31;99327.41;;;2.27;75.88
74798;BME280;63326;45.088;7.658;2023-12-04T08:59:57;99327.88;;;2.55;72.44
74798;BME280;63326;45.088;7.658;2023-12-04T09:02:25;99268.84;;;1.39;74.91
74798;BME280;63326;45.088;7.658;2023-12-04T09:04:51;99280.94;;;1.66;74.88
74798;BME280;63326;45.088;7.658;2023-12-04T09:07:18;99309.78;;;2.04;72.77
74798;BME280;63326;45.088;7.658;2023-12-04T09:09:48;99331.63;;;2.18;73.12
74798;BME280;63326;45.088;7.658;2023-12-04T09:12:15;99306.81;;;2.20;72.80
74798;BME280;63326;45.088;7.658;2023-12-04T09:14:42;99289.94;;;1.52;74.98
74798;BME280;63326;45.088;7.658;2023-12-04T09:17:10;99360.03;;;1.70;77.79
74798;BME280;63326;45.088;7.658;2023-12-04T09:19:36;99281.13;;;1.05;79.81
74798;BME280;63326;45.088;7.658;2023-12-04T09:22:03;99347.66;;;1.23;82.18
74798;BME280;63326;45.088;7.658;2023-12-04T09:24:43;99326.03;;;1.18;81.50
74798;BME280;63326;45.088;7.658;2023-12-04T09:27:11;99353.47;;;1.52;81.38
74798;BME280;63326;45.088;7.658;2023-12-04T09:29:37;99322.81;;;1.60;80.87
74798;BME280;63326;45.088;7.658;2023-12-04T09:32:04;99336.97;;;1.95;78.87
74798;BME280;63326;45.088;7.658;2023-12-04T09:34:31;99304.34;;;1.94;77.43
74798;BME280;63326;45.088;7.658;2023-12-04T09:36:57;99344.63;;;2.33;76.58
74798;BME280;63326;45.088;7.658;2023-12-04T09:39:36;99316.56;;;2.30;75.68
74798;BME280;63326;45.088;7.658;2023-12-04T09:42:03;99341.63;;;2.60;74.61
74798;BME280;63326;45.088;7.658;2023-12-04T09:44:30;99278.75;;;2.39;73.57
74798;BME280;63326;45.088;7.658;2023-12-04T09:46:58;99302.69;;;2.15;73.63
74798;BME280;63326;45.088;7.658;2023-12-04T09:49:28;99310.28;;;2.20;75.70
74798;BME280;63326;45.088;7.658;2023-12-04T09:52:01;99344.63;;;2.55;76.43
74798;BME280;63326;45.088;7.658;2023-12-04T09:54:29;99262.69;;;1.96;77.37
74798;BME280;63326;45.088;7.658;2023-12-04T09:56:56;99303.41;;;2.06;78.64
74798;BME280;63326;45.088;7.658;2023-12-04T09:59:24;99341.13;;;2.32;79.06
74798;BME280;63326;45.088;7.658;2023-12-04T10:01:53;99323.88;;;2.04;80.13
74798;BME280;63326;45.088;7.658;2023-12-04T10:04:21;99322.69;;;1.97;80.61
74798;BME280;63326;45.088;7.658;2023-12-04T10:06:51;99295.38;;;1.62;81.19
74798;BME280;63326;45.088;7.658;2023-12-04T10:09:19;99327.38;;;1.58;81.47
74798;BME280;63326;45.088;7.658;2023-12-04T10:11:50;99310.06;;;1.66;82.62
74798;BME280;63326;45.088;7.658;2023-12-04T10:14:19;99314.22;;;1.81;83.02
74798;BME280;63326;45.088;7.658;2023-12-04T10:16:48;99325.00;;;1.67;82.66
74798;BME280;63326;45.088;7.658;2023-12-04T10:21:45;99222.16;;;1.27;84.95
74798;BME280;63326;45.088;7.658;2023-12-04T10:24:13;99258.44;;;1.60;85.17
74798;BME280;63326;45.088;7.658;2023-12-04T10:26:52;99300.50;;;1.87;85.50
74798;BME280;63326;45.088;7.658;2023-12-04T10:29:19;99299.31;;;1.91;85.13
74798;BME280;63326;45.088;7.658;2023-12-04T10:31:46;99249.91;;;1.68;86.81
74798;BME280;63326;45.088;7.658;2023-12-04T10:34:14;99235.72;;;1.57;86.56
74798;BME280;63326;45.088;7.658;2023-12-04T10:36:41;99221.38;;;1.60;86.28
74798;BME280;63326;45.088;7.658;2023-12-04T10:39:08;99260.28;;;1.82;86.64
74798;BME280;63326;45.088;7.658;2023-12-04T10:41:35;99241.50;;;1.74;86.72
74798;BME280;63326;45.088;7.658;2023-12-04T10:44:01;99199.53;;;1.34;86.34
74798;BME280;63326;45.088;7.658;2023-12-04T10:46:37;99208.72;;;1.41;87.29
74798;BME280;63326;45.088;7.658;2023-12-04T10:49:05;99256.06;;;1.68;85.98
74798;BME280;63326;45.088;7.658;2023-12-04T10:51:33;99247.22;;;1.45;88.33
74798;BME280;63326;45.088;7.658;2023-12-04T10:54:00;99256.50;;;1.62;87.81
74798;BME280;63326;45.088;7.658;2023-12-04T10:56:31;99249.50;;;1.50;87.69
74798;BME280;63326;45.088;7.658;2023-12-04T10:59:00;99228.03;;;1.19;89.00
74798;BME280;63326;45.088;7.658;2023-12-04T11:01:31;99235.28;;;1.40;89.65
74798;BME280;63326;45.088;7.658;2023-12-04T11:03:59;99246.53;;;1.66;87.85
74798;BME280;63326;45.088;7.658;2023-12-04T11:06:27;99179.47;;;1.43;88.02
74798;BME280;63326;45.088;7.658;2023-12-04T11:08:56;99235.22;;;1.75;87.93
74798;BME280;63326;45.088;7.658;2023-12-04T11:11:30;99232.09;;;1.70;88.57
74798;BME280;63326;45.088;7.658;2023-12-04T11:14:01;99222.09;;;1.62;87.25
74798;BME280;63326;45.088;7.658;2023-12-04T11:19:22;99206.19;;;1.40;88.40
74798;BME280;63326;45.088;7.658;2023-12-04T11:21:51;99198.63;;;1.46;88.28
74798;BME280;63326;45.088;7.658;2023-12-04T11:24:20;99139.50;;;1.12;88.05
74798;BME280;63326;45.088;7.658;2023-12-04T11:26:48;99207.41;;;1.36;88.27
74798;BME280;63326;45.088;7.658;2023-12-04T11:29:15;99199.47;;;1.47;88.01
74798;BME280;63326;45.088;7.658;2023-12-04T11:31:43;99158.81;;;1.48;87.81
74798;BME280;63326;45.088;7.658;2023-12-04T11:34:10;99145.34;;;1.51;86.54
74798;BME280;63326;45.088;7.658;2023-12-04T11:36:38;99163.41;;;1.79;85.65
74798;BME280;63326;45.088;7.658;2023-12-04T11:39:09;99176.16;;;1.97;84.49
74798;BME280;63326;45.088;7.658;2023-12-04T11:41:42;99161.44;;;2.15;82.93
74798;BME280;63326;45.088;7.658;2023-12-04T11:44:13;99150.56;;;2.29;81.07
74798;BME280;63326;45.088;7.658;2023-12-04T11:46:56;99158.81;;;2.47;79.66
74798;BME280;63326;45.088;7.658;2023-12-04T11:49:28;99173.00;;;2.57;80.97
74798;BME280;63326;45.088;7.658;2023-12-04T11:52:06;99155.50;;;2.34;81.95
74798;BME280;63326;45.088;7.658;2023-12-04T11:54:56;99161.50;;;2.36;86.50
74798;BME280;63326;45.088;7.658;2023-12-04T11:57:24;99151.25;;;1.88;89.54
74798;BME280;63326;45.088;7.658;2023-12-04T11:59:52;99163.13;;;2.05;92.17
74798;BME280;63326;45.088;7.658;2023-12-04T12:02:41;99078.56;;;1.58;93.99
74798;BME280;63326;45.088;7.658;2023-12-04T12:05:27;99151.69;;;1.93;94.63
74798;BME280;63326;45.088;7.658;2023-12-04T12:07:55;99148.22;;;1.70;96.54
74798;BME280;63326;45.088;7.658;2023-12-04T12:10:22;99077.84;;;1.23;98.67
74798;BME280;63326;45.088;7.658;2023-12-04T12:12:48;99114.66;;;1.37;99.93
74798;BME280;63326;45.088;7.658;2023-12-04T12:15:15;99146.06;;;1.53;100.00
74798;BME280;63326;45.088;7.658;2023-12-04T12:17:42;99149.06;;;1.48;100.00
74798;BME280;63326;45.088;7.658;2023-12-04T12:20:11;99129.81;;;1.46;100.00
74798;BME280;63326;45.088;7.658;2023-12-04T12:22:38;99148.69;;;1.64;100.00
74798;BME280;63326;45.088;7.658;2023-12-04T12:25:11;99145.59;;;1.70;100.00
74798;BME280;63326;45.088;7.658;2023-12-04T12:27:38;99148.59;;;1.77;100.00
74798;BME280;63326;45.088;7.658;2023-12-04T12:30:06;99145.00;;;1.67;100.00
74798;BME280;63326;45.088;7.658;2023-12-04T12:32:35;99146.28;;;1.50;100.00
74798;BME280;63326;45.088;7.658;2023-12-04T12:35:02;99148.56;;;1.32;100.00
74798;BME280;63326;45.088;7.658;2023-12-04T12:37:34;99103.41;;;1.00;100.00
74798;BME280;63326;45.088;7.658;2023-12-04T12:40:02;99066.09;;;0.81;100.00
74798;BME280;63326;45.088;7.658;2023-12-04T12:42:31;99094.31;;;0.69;100.00
74798;BME280;63326;45.088;7.658;2023-12-04T12:45:01;99101.09;;;0.84;100.00
74798;BME280;63326;45.088;7.658;2023-12-04T12:47:29;99115.41;;;0.93;100.00
74798;BME280;63326;45.088;7.658;2023-12-04T12:49:56;99129.13;;;0.87;100.00
74798;BME280;63326;45.088;7.658;2023-12-04T12:52:23;99105.50;;;0.72;100.00
74798;BME280;63326;45.088;7.658;2023-12-04T12:54:51;99121.03;;;0.77;100.00
74798;BME280;63326;45.088;7.658;2023-12-04T12:57:18;99083.19;;;0.53;100.00
74798;BME280;63326;45.088;7.658;2023-12-04T12:59:45;99006.78;;;0.03;100.00
74798;BME280;63326;45.088;7.658;2023-12-04T13:02:11;99031.56;;;0.13;100.00
74798;BME280;63326;45.088;7.658;2023-12-04T13:04:43;99074.41;;;0.41;100.00